createdAt,value
2023-01-12T00:02:05.899Z,-7.10
2023-01-12T00:04:35.052Z,-7.10
2023-01-12T00:07:02.701Z,-7.10
2023-01-12T00:09:29.771Z,-6.90
2023-01-12T00:11:56.840Z,-6.90
2023-01-12T00:14:24.056Z,-6.80
2023-01-12T00:16:51.136Z,-7.10
2023-01-12T00:19:21.012Z,-7.00
2023-01-12T00:22:00.536Z,-7.10
2023-01-12T00:24:35.724Z,-7.00
2023-01-12T00:27:05.696Z,-7.00
2023-01-12T00:29:32.809Z,-7.10
2023-01-12T00:32:01.024Z,-7.10
2023-01-12T00:34:29.784Z,-6.70
2023-01-12T00:36:58.178Z,-7.10
2023-01-12T00:39:25.195Z,-7.10
2023-01-12T00:42:11.219Z,-7.10
2023-01-12T00:44:56.801Z,-7.10
2023-01-12T00:47:23.964Z,-7.10
2023-01-12T00:49:51.038Z,-7.10
2023-01-12T00:52:35.244Z,-7.10
2023-01-12T00:55:02.578Z,-7.10
2023-01-12T00:57:30.414Z,-7.00
2023-01-12T01:00:00.198Z,-7.10
2023-01-12T01:02:28.605Z,-7.10
2023-01-12T01:04:56.616Z,-7.10
2023-01-12T01:07:24.164Z,-7.10
2023-01-12T01:09:51.960Z,-7.10
2023-01-12T01:12:19.164Z,-7.10
2023-01-12T01:14:47.712Z,-7.20
2023-01-12T01:17:15.240Z,-7.10
2023-01-12T01:19:43.837Z,-7.20
2023-01-12T01:22:13.067Z,-7.10
2023-01-12T01:24:41.287Z,-7.20
2023-01-12T01:27:08.447Z,-7.10
2023-01-12T01:29:35.644Z,-7.10
2023-01-12T01:32:02.976Z,-7.10
2023-01-12T01:34:30.037Z,-7.00
2023-01-12T01:36:57.183Z,-6.60
2023-01-12T01:39:24.199Z,-6.80
2023-01-12T01:41:52.021Z,-7.10
2023-01-12T01:44:31.321Z,-7.20
2023-01-12T01:47:15.648Z,-7.00
2023-01-12T01:49:52.498Z,-7.00
2023-01-12T01:52:31.551Z,-7.20
2023-01-12T01:55:05.834Z,-7.10
2023-01-12T01:57:40.666Z,-7.10
2023-01-12T02:00:10.693Z,-7.10
2023-01-12T02:02:39.200Z,-7.10
2023-01-12T02:05:06.759Z,-6.90
2023-01-12T02:07:34.732Z,-7.10
2023-01-12T02:10:03.434Z,-7.10
2023-01-12T02:12:51.124Z,-7.20
2023-01-12T02:15:36.893Z,-7.10
2023-01-12T02:18:25.071Z,-7.10
2023-01-12T02:20:55.468Z,-7.10
2023-01-12T02:23:45.726Z,-7.10
2023-01-12T02:26:29.102Z,-7.10
2023-01-12T02:29:14.280Z,-7.10
2023-01-12T02:31:59.430Z,-7.10
2023-01-12T02:35:04.785Z,-7.00
2023-01-12T02:37:58.187Z,-7.10
2023-01-12T02:40:33.056Z,-7.10
2023-01-12T02:43:26.036Z,-7.00
2023-01-12T02:46:02.499Z,-7.10
2023-01-12T02:48:37.485Z,-7.00
2023-01-12T02:51:07.188Z,-6.90
2023-01-12T02:53:59.968Z,-7.10
2023-01-12T02:56:44.854Z,-7.10
2023-01-12T02:59:23.060Z,-7.10
2023-01-12T03:01:52.482Z,-7.10
2023-01-12T03:04:20.684Z,-7.00
2023-01-12T03:06:56.687Z,-7.10
2023-01-12T03:09:45.273Z,-7.20
2023-01-12T03:12:18.125Z,-7.10
2023-01-12T03:14:50.279Z,-7.20
2023-01-12T03:17:49.699Z,-7.20
2023-01-12T03:20:30.989Z,-7.20
2023-01-12T03:23:02.855Z,-7.20
2023-01-12T03:25:33.031Z,-7.20
2023-01-12T03:28:04.004Z,-7.20
2023-01-12T03:30:38.996Z,-7.20
2023-01-12T03:33:07.721Z,-7.20
2023-01-12T03:35:44.011Z,-7.10
2023-01-12T03:38:34.164Z,-7.10
2023-01-12T03:41:09.135Z,-7.10
2023-01-12T03:43:44.104Z,-7.10
2023-01-12T03:46:19.231Z,-7.10
2023-01-12T03:48:52.684Z,-7.00
2023-01-12T03:51:27.537Z,-7.10
2023-01-12T03:53:57.796Z,-7.20
2023-01-12T03:56:28.775Z,-7.20
2023-01-12T03:58:56.041Z,-7.20
2023-01-12T04:01:23.341Z,-7.20
2023-01-12T04:03:50.461Z,-7.00
2023-01-12T04:06:17.655Z,-7.20
2023-01-12T04:08:44.974Z,-7.20
2023-01-12T04:11:30.564Z,-7.20
2023-01-12T04:13:57.623Z,-7.30
2023-01-12T04:16:24.661Z,-7.20
2023-01-12T04:18:51.792Z,-7.20
2023-01-12T04:21:37.491Z,-7.20
2023-01-12T04:24:04.656Z,-7.10
2023-01-12T04:26:31.687Z,-7.10
2023-01-12T04:28:58.784Z,-7.20
2023-01-12T04:31:25.834Z,-7.20
2023-01-12T04:33:52.871Z,-7.20
2023-01-12T04:36:19.996Z,-7.30
2023-01-12T04:38:47.117Z,-7.20
2023-01-12T04:41:14.188Z,-7.20
2023-01-12T04:43:41.428Z,-7.30
2023-01-12T04:46:10.676Z,-7.30
2023-01-12T04:48:43.780Z,-7.30
2023-01-12T04:51:10.877Z,-7.20
2023-01-12T04:53:38.309Z,-7.20
2023-01-12T04:56:07.622Z,-7.20
2023-01-12T04:58:35.312Z,-7.20
2023-01-12T05:01:19.701Z,-7.30
2023-01-12T05:03:46.837Z,-7.30
2023-01-12T05:06:14.408Z,-7.30
2023-01-12T05:09:00.079Z,-7.30
2023-01-12T05:11:30.217Z,-7.30
2023-01-12T05:13:57.660Z,-7.20
2023-01-12T05:16:26.778Z,-7.20
2023-01-12T05:18:54.496Z,-7.30
2023-01-12T05:21:22.778Z,-7.30
2023-01-12T05:23:51.715Z,-7.20
2023-01-12T05:26:19.248Z,-7.30
2023-01-12T05:28:50.844Z,-7.40
2023-01-12T05:31:19.651Z,-7.40
2023-01-12T05:33:48.199Z,-7.20
2023-01-12T05:36:17.085Z,-7.40
2023-01-12T05:38:44.478Z,-7.40
2023-01-12T05:41:14.574Z,-7.50
2023-01-12T05:43:51.471Z,-7.50
2023-01-12T05:46:20.867Z,-7.50
2023-01-12T05:48:48.923Z,-7.30
2023-01-12T05:51:16.737Z,-7.40
2023-01-12T05:53:44.028Z,-7.40
2023-01-12T05:56:21.008Z,-7.50
2023-01-12T05:58:55.426Z,-7.40
2023-01-12T06:01:23.404Z,-7.60
2023-01-12T06:03:56.145Z,-7.60
2023-01-12T06:06:26.045Z,-7.60
2023-01-12T06:08:54.216Z,-7.70
2023-01-12T06:11:40.375Z,-7.70
2023-01-12T06:14:08.874Z,-7.70
2023-01-12T06:16:38.827Z,-7.60
2023-01-12T06:19:06.482Z,-7.70
2023-01-12T06:21:34.394Z,-7.40
2023-01-12T06:24:01.739Z,-7.60
2023-01-12T06:26:28.774Z,-7.70
2023-01-12T06:28:55.937Z,-7.70
2023-01-12T06:31:23.037Z,-7.80
2023-01-12T06:33:50.357Z,-7.80
2023-01-12T06:36:17.444Z,-7.90
2023-01-12T06:38:44.601Z,-7.90
2023-01-12T06:41:33.558Z,-7.90
2023-01-12T06:44:00.752Z,-8.00
2023-01-12T06:46:28.285Z,-7.50
2023-01-12T06:48:57.235Z,-7.80
2023-01-12T06:51:24.742Z,-8.00
2023-01-12T06:53:51.899Z,-8.00
2023-01-12T06:56:19.001Z,-7.80
2023-01-12T06:58:46.198Z,-7.40
2023-01-12T07:01:14.078Z,-8.10
2023-01-12T07:03:41.391Z,-8.20
2023-01-12T07:06:08.567Z,-8.20
2023-01-12T07:08:35.928Z,-8.20
2023-01-12T07:11:04.751Z,-8.10
2023-01-12T07:13:32.417Z,-8.10
2023-01-12T07:16:00.456Z,-8.10
2023-01-12T07:18:28.584Z,-7.90
2023-01-12T07:20:55.731Z,-7.90
2023-01-12T07:23:23.217Z,-8.10
2023-01-12T07:25:50.367Z,-8.00
2023-01-12T07:28:17.592Z,-8.10
2023-01-12T07:30:44.653Z,-8.00
2023-01-12T07:33:14.241Z,-8.10
2023-01-12T07:35:42.625Z,-8.00
2023-01-12T07:38:09.991Z,-7.90
2023-01-12T07:40:37.953Z,-8.00
2023-01-12T07:43:07.612Z,-7.80
2023-01-12T07:45:35.270Z,-7.90
2023-01-12T07:48:02.683Z,-8.00
2023-01-12T07:50:30.426Z,-8.00
2023-01-12T07:53:02.539Z,-7.90
2023-01-12T07:55:31.441Z,-7.00
2023-01-12T07:58:01.141Z,-7.60
2023-01-12T08:00:29.857Z,-7.70
2023-01-12T08:03:04.882Z,-7.80
2023-01-12T08:05:32.358Z,-7.70
2023-01-12T08:07:59.451Z,-7.50
2023-01-12T08:10:26.621Z,-7.80
2023-01-12T08:12:54.703Z,-7.80
2023-01-12T08:15:22.966Z,-7.80
2023-01-12T08:17:57.446Z,-7.70
2023-01-12T08:20:32.016Z,-7.80
2023-01-12T08:23:10.037Z,-7.10
2023-01-12T08:25:44.661Z,-7.80
2023-01-12T08:28:19.696Z,-7.70
2023-01-12T08:30:49.049Z,-7.50
2023-01-12T08:33:16.889Z,-7.70
2023-01-12T08:35:46.526Z,-7.60
2023-01-12T08:38:14.024Z,-7.60
2023-01-12T08:40:59.907Z,-7.60
2023-01-12T08:43:45.705Z,-7.50
2023-01-12T08:46:12.885Z,-7.20
2023-01-12T08:48:40.289Z,-7.40
2023-01-12T08:51:08.801Z,-7.00
2023-01-12T08:53:36.088Z,-7.10
2023-01-12T08:56:03.505Z,-7.50
2023-01-12T08:58:32.035Z,-7.50
2023-01-12T09:01:10.024Z,-7.60
2023-01-12T09:03:38.058Z,-7.60
2023-01-12T09:06:25.570Z,-7.70
2023-01-12T09:08:57.729Z,-7.60
2023-01-12T09:11:25.683Z,-7.40
2023-01-12T09:13:52.828Z,-7.50
2023-01-12T09:16:20.564Z,-7.30
2023-01-12T09:18:48.049Z,-7.50
2023-01-12T09:21:18.224Z,-7.50
2023-01-12T09:23:46.168Z,-7.10
2023-01-12T09:26:26.934Z,-7.30
2023-01-12T09:28:54.041Z,-7.10
2023-01-12T09:31:22.777Z,-7.30
2023-01-12T09:33:50.244Z,-7.40
2023-01-12T09:36:20.721Z,-7.20
2023-01-12T09:38:48.867Z,-7.20
2023-01-12T09:41:42.993Z,-6.70
2023-01-12T09:44:45.112Z,-6.60
2023-01-12T09:47:20.831Z,-6.80
2023-01-12T09:50:01.249Z,-7.00
2023-01-12T09:52:58.452Z,-6.60
2023-01-12T09:55:29.035Z,-6.70
2023-01-12T09:58:22.720Z,-6.50
2023-01-12T10:00:56.693Z,-6.40
2023-01-12T10:03:32.240Z,-6.60
2023-01-12T10:06:02.812Z,-6.70
2023-01-12T10:08:45.987Z,-6.70
2023-01-12T10:11:36.423Z,-6.80
2023-01-12T10:14:24.859Z,-6.60
2023-01-12T10:17:07.579Z,-6.70
2023-01-12T10:19:55.700Z,-6.90
2023-01-12T10:22:37.728Z,-6.60
2023-01-12T10:25:05.128Z,-6.40
2023-01-12T10:27:35.208Z,-6.60
2023-01-12T10:30:08.490Z,-6.40
2023-01-12T10:32:41.895Z,-6.50
2023-01-12T10:35:18.396Z,-6.30
2023-01-12T10:37:47.954Z,-6.00
2023-01-12T10:40:33.309Z,-6.20
2023-01-12T10:43:20.238Z,-5.60
2023-01-12T10:46:19.649Z,-2.10
2023-01-12T10:48:54.282Z,-0.70
2023-01-12T10:51:33.456Z,-0.60
2023-01-12T10:54:17.788Z,-0.60
2023-01-12T10:57:19.753Z,-0.20
2023-01-12T10:59:54.748Z,0.90
2023-01-12T11:02:24.500Z,2.30
2023-01-12T11:04:53.332Z,-0.60
2023-01-12T11:07:29.077Z,-0.10
2023-01-12T11:10:19.282Z,0.10
2023-01-12T11:13:03.862Z,1.50
2023-01-12T11:15:35.731Z,-1.30
2023-01-12T11:18:13.120Z,-0.30
2023-01-12T11:20:46.068Z,0.90
2023-01-12T11:23:39.241Z,-0.10
2023-01-12T11:26:27.691Z,-1.80
2023-01-12T11:29:06.823Z,-2.80
2023-01-12T11:31:40.297Z,-3.20
2023-01-12T11:34:25.080Z,-4.90
2023-01-12T11:37:02.703Z,-4.00
2023-01-12T11:39:32.132Z,-5.30
2023-01-12T11:42:19.295Z,-5.50
2023-01-12T11:45:02.022Z,-5.50
2023-01-12T11:47:41.891Z,-5.80
2023-01-12T11:50:27.553Z,-5.80
2023-01-12T11:52:56.455Z,-5.60
2023-01-12T11:55:54.875Z,-5.80
2023-01-12T11:59:00.871Z,-5.70
2023-01-12T12:01:41.209Z,-5.80
2023-01-12T12:04:35.826Z,-5.90
2023-01-12T12:07:41.113Z,-5.80
2023-01-12T12:10:47.048Z,-5.70
2023-01-12T12:13:48.094Z,-5.70
2023-01-12T12:16:15.788Z,-5.60
2023-01-12T12:18:54.922Z,-5.70
2023-01-12T12:21:33.599Z,-5.70
2023-01-12T12:24:37.310Z,-5.90
2023-01-12T12:27:42.651Z,-5.80
2023-01-12T12:30:42.903Z,-5.90
2023-01-12T12:33:16.723Z,-6.10
2023-01-12T12:35:53.353Z,-6.10
2023-01-12T12:38:38.620Z,-6.00
2023-01-12T12:41:51.933Z,-6.00
2023-01-12T12:45:03.955Z,-5.90
2023-01-12T12:47:43.182Z,-5.90
2023-01-12T12:50:21.838Z,-6.00
2023-01-12T12:53:02.102Z,-6.00
2023-01-12T12:55:29.683Z,-5.80
2023-01-12T12:58:06.694Z,-5.90
2023-01-12T13:00:42.716Z,-5.90
2023-01-12T13:03:10.496Z,-5.90
2023-01-12T13:05:41.974Z,-5.90
2023-01-12T13:08:26.775Z,-6.00
2023-01-12T13:10:59.005Z,-6.10
2023-01-12T13:13:36.152Z,-6.10
2023-01-12T13:16:14.849Z,-6.10
2023-01-12T13:18:50.774Z,-6.10
2023-01-12T13:21:26.813Z,-6.10
2023-01-12T13:23:55.371Z,-6.20
2023-01-12T13:26:25.256Z,-6.20
2023-01-12T13:29:27.661Z,-6.20
2023-01-12T13:31:58.327Z,-6.10
2023-01-12T13:34:37.474Z,-6.20
2023-01-12T13:37:22.217Z,-6.20
2023-01-12T13:40:41.962Z,-7.20
2023-01-12T13:43:30.490Z,-6.40
2023-01-12T13:46:13.246Z,-6.30
2023-01-12T13:48:45.934Z,-6.30
2023-01-12T13:51:21.655Z,-6.40
2023-01-12T13:53:59.295Z,-6.40
2023-01-12T13:56:26.673Z,-6.40
2023-01-12T13:59:01.788Z,-6.40
2023-01-12T14:01:38.328Z,-6.40
2023-01-12T14:04:13.759Z,-6.40
2023-01-12T14:06:43.387Z,-6.70
2023-01-12T14:09:16.307Z,-6.50
2023-01-12T14:12:21.562Z,-6.40
2023-01-12T14:15:26.323Z,-6.30
2023-01-12T14:18:22.728Z,-6.40
2023-01-12T14:20:55.020Z,-6.50
2023-01-12T14:23:27.978Z,-6.50
2023-01-12T14:26:10.229Z,-6.50
2023-01-12T14:28:38.703Z,-6.50
2023-01-12T14:31:08.603Z,-6.50
2023-01-12T14:33:38.417Z,-6.40
2023-01-12T14:36:12.602Z,-6.50
2023-01-12T14:38:44.284Z,-6.50
2023-01-12T14:41:38.271Z,-6.50
2023-01-12T14:44:25.839Z,-6.50
2023-01-12T14:46:54.199Z,-6.50
2023-01-12T14:49:28.546Z,-6.60
2023-01-12T14:51:58.175Z,-6.50
2023-01-12T14:54:34.060Z,-6.50
2023-01-12T14:57:03.303Z,-6.70
2023-01-12T14:59:36.521Z,-6.70
2023-01-12T15:02:18.481Z,-6.80
2023-01-12T15:05:06.966Z,-6.70
2023-01-12T15:07:36.027Z,-6.60
2023-01-12T15:10:28.304Z,-6.60
2023-01-12T15:12:57.471Z,-6.60
2023-01-12T15:15:52.513Z,-6.80
2023-01-12T15:18:38.178Z,-6.60
2023-01-12T15:21:24.181Z,-6.60
2023-01-12T15:24:09.868Z,-6.70
2023-01-12T15:26:36.951Z,-6.70
2023-01-12T15:29:05.160Z,-6.80
2023-01-12T15:31:38.438Z,-6.60
2023-01-12T15:34:06.580Z,-6.50
2023-01-12T15:36:33.641Z,-6.60
2023-01-12T15:39:00.740Z,-6.60
2023-01-12T15:41:48.504Z,-6.50
2023-01-12T15:44:17.949Z,-6.70
2023-01-12T15:46:45.221Z,-6.70
2023-01-12T15:49:16.216Z,-6.70
2023-01-12T15:51:47.755Z,-6.50
2023-01-12T15:54:20.367Z,-6.60
2023-01-12T15:56:48.216Z,-6.60
2023-01-12T15:59:16.652Z,-6.70
2023-01-12T16:01:49.040Z,-6.60
2023-01-12T16:07:06.327Z,-6.60
2023-01-12T16:09:33.549Z,-6.50
2023-01-12T16:12:00.652Z,-6.60
2023-01-12T16:14:27.966Z,-6.50
2023-01-12T16:16:55.142Z,-6.60
2023-01-12T16:19:23.699Z,-6.60
2023-01-12T16:21:50.840Z,-6.60
2023-01-12T16:24:18.083Z,-6.50
2023-01-12T16:26:46.303Z,-6.60
2023-01-12T16:29:13.401Z,-6.50
2023-01-12T16:31:40.517Z,-6.50
2023-01-12T16:34:07.579Z,-6.40
2023-01-12T16:36:35.469Z,-6.50
2023-01-12T16:39:02.984Z,-6.40
2023-01-12T16:41:30.052Z,-6.40
2023-01-12T16:43:58.836Z,-6.40
2023-01-12T16:46:26.078Z,-6.50
2023-01-12T16:48:55.424Z,-6.40
2023-01-12T16:51:22.859Z,-6.40
2023-01-12T16:53:51.630Z,-6.30
2023-01-12T16:56:18.905Z,-6.40
2023-01-12T16:58:48.803Z,-6.30
2023-01-12T17:01:19.017Z,-6.20
2023-01-12T17:03:46.618Z,-6.30
2023-01-12T17:06:16.455Z,-6.30
2023-01-12T17:08:44.062Z,-6.30
2023-01-12T17:11:14.138Z,-6.20
2023-01-12T17:13:41.512Z,-6.20
2023-01-12T17:16:10.163Z,-6.20
2023-01-12T17:18:38.272Z,-6.10
2023-01-12T17:21:09.303Z,-6.30
2023-01-12T17:23:37.030Z,-6.20
2023-01-12T17:26:05.523Z,-6.10
2023-01-12T17:28:35.071Z,-6.10
2023-01-12T17:31:18.198Z,-6.10
2023-01-12T17:33:45.263Z,-6.10
2023-01-12T17:36:13.240Z,-6.10
2023-01-12T17:38:40.604Z,-6.10
2023-01-12T17:41:33.421Z,-6.10
2023-01-12T17:44:05.945Z,-6.00
2023-01-12T17:46:33.311Z,-6.10
2023-01-12T17:49:07.169Z,-6.00
2023-01-12T17:51:35.197Z,-6.00
2023-01-12T17:54:04.136Z,-6.00
2023-01-12T17:56:33.889Z,-6.00
2023-01-12T17:59:01.680Z,-6.00
2023-01-12T18:01:30.494Z,-6.00
2023-01-12T18:03:58.902Z,-6.00
2023-01-12T18:06:27.155Z,-6.00
2023-01-12T18:09:00.041Z,-5.90
2023-01-12T18:11:28.400Z,-6.00
2023-01-12T18:13:55.980Z,-5.90
2023-01-12T18:16:23.494Z,-5.90
2023-01-12T18:18:51.926Z,-6.00
2023-01-12T18:21:21.956Z,-5.90
2023-01-12T18:23:50.128Z,-5.90
2023-01-12T18:26:20.353Z,-5.90
2023-01-12T18:28:47.669Z,-5.90
2023-01-12T18:31:18.267Z,-5.90
2023-01-12T18:33:51.767Z,-5.90
2023-01-12T18:36:22.627Z,-5.90
2023-01-12T18:38:51.032Z,-5.80
2023-01-12T18:41:38.634Z,-5.90
2023-01-12T18:44:06.745Z,-5.80
2023-01-12T18:46:55.322Z,-5.80
2023-01-12T18:49:26.416Z,-5.80
2023-01-12T18:52:12.737Z,-5.80
2023-01-12T18:54:49.180Z,-5.80
2023-01-12T18:57:18.706Z,-5.80
2023-01-12T18:59:46.591Z,-5.80
2023-01-12T19:02:15.356Z,-5.80
2023-01-12T19:13:34.253Z,-5.80
2023-01-12T19:16:20.114Z,-5.70
2023-01-12T19:18:47.265Z,-5.80
2023-01-12T19:21:32.724Z,-5.70
2023-01-12T19:24:18.515Z,-5.80
2023-01-12T19:27:04.260Z,-5.80
2023-01-12T19:29:31.398Z,-5.70
2023-01-12T19:31:58.480Z,-5.70
2023-01-12T19:34:25.686Z,-5.70
2023-01-12T19:36:53.040Z,-5.70
2023-01-12T19:39:28.509Z,-5.70
2023-01-12T19:42:14.140Z,-5.60
2023-01-12T19:44:41.238Z,-5.70
2023-01-12T19:47:08.235Z,-5.70
2023-01-12T19:49:35.308Z,-5.60
2023-01-12T19:52:02.446Z,-5.70
2023-01-12T19:54:29.672Z,-5.70
2023-01-12T19:57:15.466Z,-5.70
2023-01-12T19:59:44.885Z,-5.60
2023-01-12T20:02:13.714Z,-5.60
2023-01-12T20:04:41.045Z,-5.70
2023-01-12T20:07:09.004Z,-5.60
2023-01-12T20:09:37.537Z,-5.50
2023-01-12T20:12:06.118Z,-5.60
2023-01-12T20:14:33.219Z,-5.50
2023-01-12T20:17:00.306Z,-5.60
2023-01-12T20:19:27.401Z,-5.60
2023-01-12T20:21:55.528Z,-5.50
2023-01-12T20:24:22.604Z,-5.60
2023-01-12T20:26:49.615Z,-5.50
2023-01-12T20:29:17.087Z,-5.50
2023-01-12T20:31:45.130Z,-5.50
2023-01-12T20:34:13.125Z,-5.50
2023-01-12T20:36:40.748Z,-5.50
2023-01-12T20:39:11.559Z,-5.60
2023-01-12T20:41:39.010Z,-5.50
2023-01-12T20:44:07.074Z,-5.60
2023-01-12T20:46:35.223Z,-5.60
2023-01-12T20:49:02.626Z,-5.60
2023-01-12T20:51:30.445Z,-5.60
2023-01-12T20:53:59.345Z,-5.50
2023-01-12T20:56:27.120Z,-5.50
2023-01-12T20:59:00.446Z,-5.50
2023-01-12T21:01:28.042Z,-5.60
2023-01-12T21:03:55.340Z,-5.60
2023-01-12T21:06:22.859Z,-5.50
2023-01-12T21:08:49.953Z,-5.50
2023-01-12T21:11:19.671Z,-5.50
2023-01-12T21:13:47.219Z,-5.50
2023-01-12T21:16:18.267Z,-5.40
2023-01-12T21:18:46.466Z,-5.50
2023-01-12T21:21:13.877Z,-5.40
2023-01-12T21:23:41.020Z,-5.40
2023-01-12T21:26:08.598Z,-5.40
2023-01-12T21:28:38.516Z,-5.40
2023-01-12T21:31:08.642Z,-5.40
2023-01-12T21:33:36.315Z,-5.40
2023-01-12T21:36:04.250Z,-5.40
2023-01-12T21:38:32.232Z,-5.40
2023-01-12T21:41:04.710Z,-5.40
2023-01-12T21:43:32.866Z,-5.40
2023-01-12T21:46:09.408Z,-5.30
2023-01-12T21:48:36.801Z,-5.30
2023-01-12T21:51:08.910Z,-5.30
2023-01-12T21:53:36.456Z,-5.30
2023-01-12T21:56:05.462Z,-5.30
2023-01-12T21:58:34.654Z,-5.30
2023-01-12T22:01:08.307Z,-5.30
2023-01-12T22:03:35.672Z,-5.30
2023-01-12T22:06:08.168Z,-5.30
2023-01-12T22:08:37.754Z,-5.30
2023-01-12T22:11:13.164Z,-5.30
2023-01-12T22:13:40.916Z,-5.30
2023-01-12T22:16:10.427Z,-5.20
2023-01-12T22:18:39.016Z,-5.30
2023-01-12T22:21:08.571Z,-5.20
2023-01-12T22:23:38.983Z,-5.20
2023-01-12T22:26:12.641Z,-5.30
2023-01-12T22:28:42.208Z,-5.30
2023-01-12T22:31:13.785Z,-5.20
2023-01-12T22:33:47.799Z,-5.30
2023-01-12T22:36:15.146Z,-5.30
2023-01-12T22:38:42.430Z,-5.20
2023-01-12T22:41:12.231Z,-5.20
2023-01-12T22:43:43.005Z,-5.30
2023-01-12T22:46:19.398Z,-5.20
2023-01-12T22:48:51.063Z,-5.20
2023-01-12T22:51:20.909Z,-5.10
2023-01-12T22:53:48.471Z,-5.20
2023-01-12T22:56:15.724Z,-5.20
2023-01-12T22:58:50.454Z,-5.10
2023-01-12T23:01:18.914Z,-5.10
2023-01-12T23:03:46.504Z,-5.10
2023-01-12T23:06:15.497Z,-5.10
2023-01-12T23:08:44.180Z,-5.10
2023-01-12T23:11:16.879Z,-5.10
2023-01-12T23:13:44.262Z,-5.10
2023-01-12T23:16:13.398Z,-5.10
2023-01-12T23:18:42.501Z,-5.20
2023-01-12T23:21:14.340Z,-5.00
2023-01-12T23:23:44.083Z,-5.10
2023-01-12T23:26:13.379Z,-5.00
2023-01-12T23:28:42.827Z,-5.00
2023-01-12T23:31:15.391Z,-5.00
2023-01-12T23:33:43.283Z,-5.00
2023-01-12T23:36:22.570Z,-5.00
2023-01-12T23:38:57.893Z,-5.00
2023-01-12T23:41:26.947Z,-5.00
2023-01-12T23:43:56.376Z,-5.00
2023-01-12T23:46:24.794Z,-4.90
2023-01-12T23:48:54.315Z,-4.90
2023-01-12T23:51:22.573Z,-4.90
2023-01-12T23:53:52.507Z,-4.90
2023-01-12T23:56:19.772Z,-4.90
2023-01-12T23:58:47.841Z,-4.90
